createdAt,value
2023-02-11T00:01:32.181Z,28.73
2023-02-11T00:03:34.718Z,28.13
2023-02-11T00:05:37.576Z,34.03
2023-02-11T00:07:39.800Z,30.10
2023-02-11T00:09:42.609Z,25.60
2023-02-11T00:11:45.139Z,31.20
2023-02-11T00:13:48.337Z,32.47
2023-02-11T00:15:51.465Z,33.33
2023-02-11T00:17:54.175Z,27.77
2023-02-11T00:19:56.997Z,32.50
2023-02-11T00:22:00.652Z,28.27
2023-02-11T00:24:03.448Z,30.13
2023-02-11T00:26:13.175Z,25.60
2023-02-11T00:28:16.017Z,28.83
2023-02-11T00:30:18.558Z,28.93
2023-02-11T00:32:21.566Z,26.33
2023-02-11T00:34:23.735Z,30.40
2023-02-11T00:36:27.775Z,36.07
2023-02-11T00:38:30.294Z,31.97
2023-02-11T00:40:33.325Z,32.37
2023-02-11T00:42:38.325Z,27.60
2023-02-11T00:44:41.241Z,31.13
2023-02-11T00:46:43.965Z,28.40
2023-02-11T00:48:46.780Z,28.97
2023-02-11T00:50:49.015Z,30.67
2023-02-11T00:52:51.801Z,27.27
2023-02-11T00:54:54.138Z,27.07
2023-02-11T00:56:57.008Z,24.50
2023-02-11T00:58:59.608Z,27.47
2023-02-11T01:01:02.517Z,27.17
2023-02-11T01:03:05.066Z,27.57
2023-02-11T01:05:08.097Z,28.07
2023-02-11T01:07:10.256Z,37.93
2023-02-11T01:09:13.030Z,28.57
2023-02-11T01:11:18.207Z,25.83
2023-02-11T01:13:21.081Z,32.97
2023-02-11T01:15:23.864Z,29.13
2023-02-11T01:17:26.356Z,21.63
2023-02-11T01:19:28.858Z,35.77
2023-02-11T01:21:31.320Z,25.73
2023-02-11T01:23:33.854Z,37.70
2023-02-11T01:25:36.640Z,23.07
2023-02-11T01:27:39.301Z,33.53
2023-02-11T01:29:41.686Z,28.57
2023-02-11T01:31:44.243Z,23.30
2023-02-11T01:33:47.160Z,26.77
2023-02-11T01:35:50.284Z,28.23
2023-02-11T01:37:53.322Z,30.53
2023-02-11T01:39:55.766Z,29.93
2023-02-11T01:41:58.547Z,26.13
2023-02-11T01:44:23.050Z,27.20
2023-02-11T01:46:36.846Z,28.57
2023-02-11T01:48:45.933Z,29.67
2023-02-11T01:50:53.134Z,25.90
2023-02-11T01:53:15.709Z,30.67
2023-02-11T01:55:36.764Z,28.77
2023-02-11T01:57:41.927Z,29.13
2023-02-11T01:59:54.544Z,24.27
2023-02-11T02:02:05.054Z,28.23
2023-02-11T02:04:10.075Z,29.57
2023-02-11T02:06:35.035Z,27.27
2023-02-11T02:09:08.936Z,22.97
2023-02-11T02:11:11.898Z,28.87
2023-02-11T02:13:15.115Z,23.87
2023-02-11T02:15:26.633Z,29.17
2023-02-11T02:17:41.768Z,22.57
2023-02-11T02:20:24.605Z,22.17
2023-02-11T02:23:09.525Z,21.90
2023-02-11T02:25:14.578Z,22.70
2023-02-11T02:27:44.052Z,21.43
2023-02-11T02:30:13.208Z,28.85
2023-02-11T02:32:52.413Z,22.75
2023-02-11T02:35:15.706Z,20.83
2023-02-11T02:37:27.661Z,25.70
2023-02-11T02:39:33.844Z,23.23
2023-02-11T02:41:37.931Z,24.60
2023-02-11T02:43:49.026Z,23.30
2023-02-11T02:45:51.673Z,25.33
2023-02-11T02:47:54.509Z,25.57
2023-02-11T02:49:57.541Z,23.13
2023-02-11T02:52:42.305Z,31.07
2023-02-11T02:55:06.057Z,23.27
2023-02-11T02:57:52.343Z,21.00
2023-02-11T03:00:27.342Z,22.97
2023-02-11T03:02:38.948Z,25.03
2023-02-11T03:05:18.789Z,27.10
2023-02-11T03:07:21.243Z,26.58
2023-02-11T03:09:47.980Z,23.27
2023-02-11T03:11:50.242Z,29.43
2023-02-11T03:13:54.742Z,26.97
2023-02-11T03:15:58.817Z,24.80
2023-02-11T03:18:03.635Z,25.93
2023-02-11T03:20:08.104Z,27.00
2023-02-11T03:22:30.164Z,30.73
2023-02-11T03:24:37.133Z,27.47
2023-02-11T03:26:46.607Z,22.07
2023-02-11T03:28:49.041Z,23.00
2023-02-11T03:31:10.250Z,28.03
2023-02-11T03:33:29.396Z,24.57
2023-02-11T03:35:55.746Z,20.35
2023-02-11T03:37:59.938Z,36.20
2023-02-11T03:40:11.571Z,19.13
2023-02-11T03:42:15.843Z,21.63
2023-02-11T03:44:20.075Z,21.00
2023-02-11T03:46:28.895Z,22.07
2023-02-11T03:48:45.139Z,26.27
2023-02-11T03:50:49.157Z,26.77
2023-02-11T03:52:52.860Z,27.30
2023-02-11T03:54:57.984Z,30.90
2023-02-11T03:57:02.216Z,34.57
2023-02-11T03:59:05.076Z,30.73
2023-02-11T04:01:09.925Z,30.17
2023-02-11T04:03:12.667Z,27.30
2023-02-11T04:05:16.565Z,26.57
2023-02-11T04:07:19.041Z,30.43
2023-02-11T04:09:21.596Z,27.43
2023-02-11T04:11:24.045Z,30.07
2023-02-11T04:13:26.525Z,28.33
2023-02-11T04:15:29.095Z,32.33
2023-02-11T04:17:31.892Z,37.27
2023-02-11T04:19:34.420Z,26.27
2023-02-11T04:21:36.786Z,28.97
2023-02-11T04:23:39.265Z,27.07
2023-02-11T04:25:42.391Z,30.47
2023-02-11T04:27:44.928Z,30.30
2023-02-11T04:30:06.898Z,28.77
2023-02-11T04:32:10.703Z,26.87
2023-02-11T04:34:13.126Z,29.57
2023-02-11T04:36:15.596Z,27.97
2023-02-11T04:38:18.052Z,26.67
2023-02-11T04:40:20.581Z,29.23
2023-02-11T04:42:22.935Z,27.67
2023-02-11T04:44:25.383Z,35.30
2023-02-11T04:46:27.892Z,32.33
2023-02-11T04:48:30.548Z,27.17
2023-02-11T04:50:33.338Z,31.00
2023-02-11T04:52:35.844Z,31.07
2023-02-11T04:54:38.670Z,31.07
2023-02-11T04:56:40.859Z,30.17
2023-02-11T04:58:43.658Z,29.97
2023-02-11T05:00:46.458Z,32.97
2023-02-11T05:02:49.251Z,32.97
2023-02-11T05:04:51.768Z,31.37
2023-02-11T05:06:54.622Z,38.60
2023-02-11T05:08:57.750Z,31.90
2023-02-11T05:11:02.348Z,33.33
2023-02-11T05:13:05.076Z,32.50
2023-02-11T05:15:07.967Z,32.17
2023-02-11T05:17:10.221Z,31.07
2023-02-11T05:19:13.024Z,30.30
2023-02-11T05:21:17.602Z,29.77
2023-02-11T05:23:20.409Z,28.60
2023-02-11T05:25:22.547Z,32.10
2023-02-11T05:27:25.343Z,29.80
2023-02-11T05:29:27.961Z,31.27
2023-02-11T05:31:30.846Z,38.90
2023-02-11T05:33:33.427Z,33.70
2023-02-11T05:35:36.156Z,29.00
2023-02-11T05:37:38.843Z,26.07
2023-02-11T05:39:41.690Z,23.60
2023-02-11T05:41:43.790Z,27.90
2023-02-11T05:43:51.069Z,31.50
2023-02-11T05:45:53.652Z,31.10
2023-02-11T05:47:56.691Z,31.10
2023-02-11T05:49:58.811Z,28.93
2023-02-11T05:52:01.555Z,31.63
2023-02-11T05:54:03.902Z,27.60
2023-02-11T05:56:06.997Z,25.37
2023-02-11T05:58:09.234Z,29.93
2023-02-11T06:00:12.574Z,25.30
2023-02-11T06:02:15.217Z,28.63
2023-02-11T06:04:17.719Z,25.03
2023-02-11T06:06:20.198Z,32.23
2023-02-11T06:08:22.591Z,22.77
2023-02-11T06:10:25.099Z,29.40
2023-02-11T06:12:27.588Z,26.13
2023-02-11T06:14:30.124Z,26.83
2023-02-11T06:16:32.962Z,25.30
2023-02-11T06:18:35.488Z,29.03
2023-02-11T06:20:40.956Z,26.73
2023-02-11T06:22:43.091Z,24.80
2023-02-11T06:25:00.465Z,26.63
2023-02-11T06:27:04.596Z,27.30
2023-02-11T06:29:07.451Z,22.83
2023-02-11T06:31:11.902Z,27.83
2023-02-11T06:33:14.795Z,28.20
2023-02-11T06:35:17.340Z,26.07
2023-02-11T06:37:20.146Z,27.53
2023-02-11T06:39:22.671Z,23.73
2023-02-11T06:41:25.613Z,26.00
2023-02-11T06:43:27.780Z,28.93
2023-02-11T06:45:30.567Z,25.23
2023-02-11T06:47:32.647Z,24.40
2023-02-11T06:49:35.440Z,26.03
2023-02-11T06:51:38.082Z,26.80
2023-02-11T06:53:46.291Z,24.93
2023-02-11T06:55:48.995Z,26.33
2023-02-11T06:57:51.609Z,25.17
2023-02-11T06:59:54.171Z,23.30
2023-02-11T07:01:57.152Z,28.37
2023-02-11T07:03:59.703Z,25.53
2023-02-11T07:06:03.172Z,29.40
2023-02-11T07:08:05.948Z,22.03
2023-02-11T07:10:08.953Z,25.33
2023-02-11T07:12:11.558Z,24.83
2023-02-11T07:14:16.360Z,30.07
2023-02-11T07:16:20.989Z,20.07
2023-02-11T07:18:23.384Z,26.70
2023-02-11T07:20:26.217Z,25.97
2023-02-11T07:22:28.983Z,23.10
2023-02-11T07:24:31.505Z,27.00
2023-02-11T07:26:33.898Z,27.60
2023-02-11T07:28:37.656Z,26.43
2023-02-11T07:30:40.188Z,31.47
2023-02-11T07:32:42.713Z,23.20
2023-02-11T07:34:45.598Z,26.33
2023-02-11T07:36:49.138Z,26.67
2023-02-11T07:38:51.936Z,27.00
2023-02-11T07:40:54.468Z,27.17
2023-02-11T07:42:57.304Z,29.35
2023-02-11T07:44:59.845Z,24.20
2023-02-11T07:47:02.714Z,26.67
2023-02-11T07:49:05.233Z,25.58
2023-02-11T07:51:13.601Z,32.17
2023-02-11T07:53:16.178Z,24.95
2023-02-11T07:55:19.049Z,26.48
2023-02-11T07:57:21.559Z,25.52
2023-02-11T07:59:25.003Z,24.15
2023-02-11T08:01:28.786Z,26.95
2023-02-11T08:03:31.796Z,25.20
2023-02-11T08:05:34.245Z,25.35
2023-02-11T08:07:37.052Z,23.83
2023-02-11T08:09:39.574Z,24.55
2023-02-11T08:11:42.468Z,24.60
2023-02-11T08:13:45.335Z,25.92
2023-02-11T08:15:48.431Z,24.75
2023-02-11T08:17:51.029Z,25.02
2023-02-11T08:19:53.783Z,25.58
2023-02-11T08:21:57.104Z,21.95
2023-02-11T08:23:59.963Z,23.73
2023-02-11T08:26:08.329Z,26.17
2023-02-11T08:28:11.275Z,22.65
2023-02-11T08:30:14.482Z,27.30
2023-02-11T08:32:17.340Z,22.10
2023-02-11T08:34:19.934Z,24.73
2023-02-11T08:36:25.223Z,23.27
2023-02-11T08:38:27.750Z,24.08
2023-02-11T08:40:30.272Z,27.77
2023-02-11T08:42:33.046Z,25.88
2023-02-11T08:44:35.568Z,28.70
2023-02-11T08:46:38.353Z,31.27
2023-02-11T08:48:41.262Z,25.40
2023-02-11T08:50:44.058Z,28.27
2023-02-11T08:52:46.513Z,27.65
2023-02-11T08:54:49.624Z,26.52
2023-02-11T08:56:52.590Z,29.40
2023-02-11T08:58:55.485Z,29.75
2023-02-11T09:00:58.056Z,26.02
2023-02-11T09:03:01.550Z,23.05
2023-02-11T09:05:04.220Z,34.95
2023-02-11T09:07:07.369Z,30.98
2023-02-11T09:09:13.683Z,28.70
2023-02-11T09:11:18.304Z,24.73
2023-02-11T09:13:20.918Z,26.95
2023-02-11T09:15:23.734Z,25.02
2023-02-11T09:17:26.210Z,25.25
2023-02-11T09:19:29.061Z,25.77
2023-02-11T09:21:31.934Z,26.90
2023-02-11T09:23:34.897Z,25.35
2023-02-11T09:25:40.679Z,23.77
2023-02-11T09:27:43.523Z,26.77
2023-02-11T09:29:46.057Z,22.95
2023-02-11T09:31:49.930Z,26.75
2023-02-11T09:33:55.585Z,26.45
2023-02-11T09:36:01.847Z,31.70
2023-02-11T09:38:04.398Z,27.27
2023-02-11T09:40:07.406Z,25.27
2023-02-11T09:42:20.709Z,27.77
2023-02-11T09:44:29.598Z,22.23
2023-02-11T09:46:43.304Z,36.35
2023-02-11T09:48:49.297Z,26.73
2023-02-11T09:50:55.647Z,26.30
2023-02-11T09:53:02.984Z,23.98
2023-02-11T09:55:30.105Z,27.23
2023-02-11T09:57:35.226Z,28.10
2023-02-11T09:59:37.764Z,27.73
2023-02-11T10:02:05.251Z,29.05
2023-02-11T10:04:47.744Z,26.00
2023-02-11T10:07:01.969Z,25.88
2023-02-11T10:09:13.253Z,31.52
2023-02-11T10:11:30.619Z,26.00
2023-02-11T10:14:06.067Z,28.35
2023-02-11T10:16:37.549Z,26.98
2023-02-11T10:18:51.764Z,25.70
2023-02-11T10:21:18.010Z,29.15
2023-02-11T10:23:25.848Z,29.30
2023-02-11T10:25:41.579Z,30.95
2023-02-11T10:28:02.463Z,27.83
2023-02-11T10:30:10.244Z,24.48
2023-02-11T10:32:37.961Z,27.70
2023-02-11T10:34:42.520Z,29.02
2023-02-11T10:36:45.746Z,25.30
2023-02-11T10:38:48.549Z,32.17
2023-02-11T10:40:51.688Z,28.50
2023-02-11T10:42:59.225Z,29.17
2023-02-11T10:45:05.099Z,28.77
2023-02-11T10:47:21.278Z,24.38
2023-02-11T10:49:44.647Z,26.08
2023-02-11T10:51:47.443Z,26.27
2023-02-11T10:54:14.420Z,28.00
2023-02-11T10:56:27.902Z,27.42
2023-02-11T10:58:41.393Z,32.75
2023-02-11T11:00:44.425Z,28.02
2023-02-11T11:03:15.373Z,32.37
2023-02-11T11:05:39.849Z,30.35
2023-02-11T11:07:56.204Z,30.40
2023-02-11T11:10:25.424Z,31.77
2023-02-11T11:12:44.956Z,31.77
2023-02-11T11:14:57.814Z,38.25
2023-02-11T11:17:00.346Z,31.07
2023-02-11T11:19:08.587Z,27.40
2023-02-11T11:21:23.687Z,29.97
2023-02-11T11:23:26.905Z,30.58
2023-02-11T11:25:32.301Z,29.35
2023-02-11T11:27:35.123Z,27.83
2023-02-11T11:29:48.198Z,31.70
2023-02-11T11:32:00.886Z,27.00
2023-02-11T11:34:21.655Z,26.07
2023-02-11T11:36:33.760Z,30.57
2023-02-11T11:38:43.061Z,25.42
2023-02-11T11:40:45.915Z,32.10
2023-02-11T11:43:04.194Z,30.67
2023-02-11T11:45:06.933Z,28.63
2023-02-11T11:47:12.026Z,26.97
2023-02-11T11:49:33.028Z,27.67
2023-02-11T11:51:37.918Z,26.20
2023-02-11T11:54:00.900Z,30.70
2023-02-11T11:56:15.530Z,30.37
2023-02-11T11:58:21.473Z,30.43
2023-02-11T12:00:43.829Z,33.47
2023-02-11T12:03:04.436Z,33.60
2023-02-11T12:05:13.975Z,29.57
2023-02-11T12:07:26.049Z,30.85
2023-02-11T12:09:59.338Z,28.73
2023-02-11T12:12:39.134Z,29.30
2023-02-11T12:15:20.076Z,29.13
2023-02-11T12:17:38.527Z,31.07
2023-02-11T12:19:56.550Z,29.40
2023-02-11T12:22:23.424Z,38.90
2023-02-11T12:24:27.583Z,29.40
2023-02-11T12:26:45.652Z,36.23
2023-02-11T12:29:08.932Z,39.20
2023-02-11T12:31:49.597Z,41.13
2023-02-11T12:34:16.349Z,36.90
2023-02-11T12:36:20.717Z,31.80
2023-02-11T12:38:36.528Z,37.97
2023-02-11T12:40:39.276Z,35.00
2023-02-11T12:43:18.897Z,37.83
2023-02-11T12:45:39.664Z,32.58
2023-02-11T12:48:29.140Z,34.17
2023-02-11T12:50:46.016Z,35.13
2023-02-11T12:52:56.222Z,40.30
2023-02-11T12:55:15.765Z,34.97
2023-02-11T12:57:26.271Z,34.97
2023-02-11T12:59:29.068Z,33.47
2023-02-11T13:01:36.905Z,30.37
2023-02-11T13:03:49.179Z,37.60
2023-02-11T13:06:13.979Z,35.13
2023-02-11T13:08:16.786Z,37.90
2023-02-11T13:10:19.384Z,35.17
2023-02-11T13:12:41.462Z,35.27
2023-02-11T13:14:44.062Z,33.50
2023-02-11T13:16:48.914Z,33.20
2023-02-11T13:19:00.222Z,29.00
2023-02-11T13:21:21.237Z,32.87
2023-02-11T13:23:44.439Z,33.40
2023-02-11T13:26:27.828Z,42.87
2023-02-11T13:28:58.676Z,33.93
2023-02-11T13:31:07.167Z,33.50
2023-02-11T13:33:39.532Z,34.00
2023-02-11T13:35:47.084Z,32.80
2023-02-11T13:37:49.273Z,33.20
2023-02-11T13:39:58.899Z,32.50
2023-02-11T13:42:04.451Z,30.42
2023-02-11T13:44:09.793Z,32.90
2023-02-11T13:46:13.896Z,29.30
2023-02-11T13:48:24.104Z,32.63
2023-02-11T13:50:27.596Z,31.88
2023-02-11T13:52:37.506Z,31.27
2023-02-11T13:54:40.324Z,30.63
2023-02-11T13:56:44.207Z,31.13
2023-02-11T13:58:51.457Z,35.53
2023-02-11T14:00:54.388Z,34.67
2023-02-11T14:03:30.314Z,33.00
2023-02-11T14:05:51.931Z,32.27
2023-02-11T14:08:31.127Z,28.87
2023-02-11T14:10:42.155Z,32.65
2023-02-11T14:13:04.287Z,33.40
2023-02-11T14:15:07.993Z,33.40
2023-02-11T14:17:10.625Z,33.60
2023-02-11T14:19:46.800Z,30.60
2023-02-11T14:21:49.422Z,32.67
2023-02-11T14:23:56.883Z,30.47
2023-02-11T14:26:22.153Z,33.87
2023-02-11T14:28:33.009Z,29.30
2023-02-11T14:30:45.164Z,30.90
2023-02-11T14:33:26.265Z,31.37
2023-02-11T14:35:31.272Z,31.03
2023-02-11T14:37:52.312Z,27.47
2023-02-11T14:40:19.349Z,27.30
2023-02-11T14:42:26.896Z,27.30
2023-02-11T14:44:33.146Z,22.63
2023-02-11T14:46:35.564Z,31.10
2023-02-11T14:48:43.265Z,29.30
2023-02-11T14:50:57.848Z,25.63
2023-02-11T14:53:03.093Z,23.97
2023-02-11T14:55:06.548Z,24.73
2023-02-11T14:57:19.955Z,26.87
2023-02-11T14:59:23.264Z,26.00
2023-02-11T15:01:31.293Z,27.13
2023-02-11T15:03:35.024Z,23.20
2023-02-11T15:05:37.861Z,24.83
2023-02-11T15:07:45.249Z,28.97
2023-02-11T15:09:51.388Z,25.07
2023-02-11T15:11:54.425Z,26.03
2023-02-11T15:13:59.166Z,23.00
2023-02-11T15:16:06.870Z,27.80
2023-02-11T15:18:22.800Z,26.70
2023-02-11T15:20:28.428Z,25.00
2023-02-11T15:22:36.629Z,27.17
2023-02-11T15:24:40.311Z,24.50
2023-02-11T15:26:42.821Z,27.50
2023-02-11T15:28:52.644Z,24.23
2023-02-11T15:33:05.688Z,25.93
2023-02-11T15:35:11.204Z,24.53
2023-02-11T15:37:26.034Z,31.20
2023-02-11T15:39:34.869Z,23.23
2023-02-11T15:41:38.315Z,25.40
2023-02-11T15:43:45.871Z,29.93
2023-02-11T15:45:59.315Z,24.40
2023-02-11T15:48:13.885Z,24.90
2023-02-11T15:50:29.069Z,25.50
2023-02-11T15:52:32.036Z,23.73
2023-02-11T15:54:34.351Z,25.83
2023-02-11T15:56:43.561Z,27.20
2023-02-11T15:58:48.312Z,25.97
2023-02-11T16:00:59.650Z,25.30
2023-02-11T16:03:02.132Z,25.57
2023-02-11T16:05:07.817Z,27.17
2023-02-11T16:07:38.798Z,23.73
2023-02-11T16:09:41.230Z,26.63
2023-02-11T16:11:49.135Z,32.47
2023-02-11T16:13:51.552Z,29.33
2023-02-11T16:15:58.484Z,26.57
2023-02-11T16:18:13.497Z,28.17
2023-02-11T16:20:19.455Z,29.13
2023-02-11T16:22:30.591Z,23.43
2023-02-11T16:24:35.392Z,27.37
2023-02-11T16:26:43.192Z,26.47
2023-02-11T16:28:45.482Z,25.10
2023-02-11T16:30:53.237Z,25.30
2023-02-11T16:32:56.034Z,25.93
2023-02-11T16:35:00.998Z,31.23
2023-02-11T16:37:06.437Z,27.67
2023-02-11T16:39:09.319Z,24.77
2023-02-11T16:41:12.816Z,28.53
2023-02-11T16:43:19.984Z,28.23
2023-02-11T16:45:22.548Z,22.60
2023-02-11T16:47:27.110Z,28.07
2023-02-11T16:49:41.814Z,30.67
2023-02-11T16:51:46.754Z,25.97
2023-02-11T16:53:49.318Z,22.40
2023-02-11T16:55:53.241Z,26.67
2023-02-11T16:57:55.727Z,27.10
2023-02-11T16:59:59.396Z,29.43
2023-02-11T17:02:01.933Z,33.50
2023-02-11T17:04:05.095Z,32.57
2023-02-11T17:06:11.734Z,31.80
2023-02-11T17:08:14.878Z,23.43
2023-02-11T17:10:22.105Z,26.57
2023-02-11T17:12:27.889Z,24.70
2023-02-11T17:14:30.398Z,24.33
2023-02-11T17:16:33.317Z,22.77
2023-02-11T17:18:36.952Z,23.97
2023-02-11T17:20:39.688Z,24.37
2023-02-11T17:22:42.268Z,22.20
2023-02-11T17:24:45.010Z,21.63
2023-02-11T17:26:48.377Z,26.23
2023-02-11T17:28:50.876Z,25.90
2023-02-11T17:30:53.684Z,26.27
2023-02-11T17:32:56.539Z,24.83
2023-02-11T17:34:58.761Z,26.23
2023-02-11T17:37:07.707Z,24.87
2023-02-11T17:39:10.242Z,24.07
2023-02-11T17:41:13.091Z,28.87
2023-02-11T17:43:15.900Z,23.53
2023-02-11T17:45:21.173Z,23.77
2023-02-11T17:47:24.920Z,27.97
2023-02-11T17:49:27.703Z,28.07
2023-02-11T17:51:33.112Z,26.13
2023-02-11T17:53:35.888Z,26.33
2023-02-11T17:55:38.617Z,26.90
2023-02-11T17:57:41.529Z,25.63
2023-02-11T17:59:44.052Z,26.20
2023-02-11T18:01:47.162Z,26.90
2023-02-11T18:03:49.369Z,26.27
2023-02-11T18:05:52.522Z,27.50
2023-02-11T18:07:55.634Z,27.93
2023-02-11T18:09:58.431Z,29.40
2023-02-11T18:12:01.088Z,27.87
2023-02-11T18:14:04.806Z,30.17
2023-02-11T18:16:15.746Z,30.40
2023-02-11T18:18:18.297Z,29.93
2023-02-11T18:20:20.460Z,31.33
2023-02-11T18:22:23.813Z,26.63
2023-02-11T18:24:26.391Z,30.30
2023-02-11T18:26:29.224Z,27.77
2023-02-11T18:28:31.832Z,29.90
2023-02-11T18:30:34.252Z,31.10
2023-02-11T18:32:36.773Z,27.10
2023-02-11T18:34:41.076Z,29.33
2023-02-11T18:36:43.661Z,28.93
2023-02-11T18:38:46.200Z,27.63
2023-02-11T18:40:50.456Z,30.92
2023-02-11T18:42:53.296Z,32.08
2023-02-11T18:44:55.856Z,30.40
2023-02-11T18:46:58.664Z,26.73
2023-02-11T18:49:01.315Z,29.40
2023-02-11T18:51:12.331Z,29.10
2023-02-11T18:53:17.902Z,23.67
2023-02-11T18:55:23.696Z,28.33
2023-02-11T18:57:26.353Z,32.63
2023-02-11T18:59:29.047Z,30.25
2023-02-11T19:01:33.774Z,33.97
2023-02-11T19:03:36.675Z,31.07
2023-02-11T19:05:46.466Z,30.00
2023-02-11T19:09:50.912Z,26.60
2023-02-11T19:11:54.566Z,24.90
2023-02-11T19:13:57.438Z,25.53
2023-02-11T19:16:00.320Z,26.55
2023-02-11T19:18:02.894Z,25.20
2023-02-11T19:20:06.125Z,27.80
2023-02-11T19:22:10.585Z,29.50
2023-02-11T19:24:15.601Z,27.73
2023-02-11T19:26:17.749Z,26.00
2023-02-11T19:28:20.557Z,27.00
2023-02-11T19:30:23.143Z,33.57
2023-02-11T19:32:25.919Z,28.95
2023-02-11T19:34:28.002Z,30.57
2023-02-11T19:36:30.984Z,28.83
2023-02-11T19:38:33.422Z,27.07
2023-02-11T19:40:36.409Z,27.70
2023-02-11T19:42:39.302Z,29.17
2023-02-11T19:44:41.796Z,26.87
2023-02-11T19:46:46.079Z,28.05
2023-02-11T19:48:49.429Z,29.87
2023-02-11T19:50:51.962Z,23.77
2023-02-11T19:52:55.499Z,26.37
2023-02-11T19:54:58.355Z,27.83
2023-02-11T19:57:00.840Z,27.45
2023-02-11T19:59:03.852Z,26.83
2023-02-11T20:01:22.879Z,28.13
2023-02-11T20:03:25.780Z,32.00
2023-02-11T20:05:28.285Z,26.67
2023-02-11T20:07:31.118Z,29.20
2023-02-11T20:09:33.582Z,29.45
2023-02-11T20:11:36.901Z,29.17
2023-02-11T20:13:39.801Z,29.30
2023-02-11T20:15:42.719Z,32.20
2023-02-11T20:17:45.332Z,27.37
2023-02-11T20:19:48.173Z,26.73
2023-02-11T20:21:53.419Z,27.37
2023-02-11T20:23:56.537Z,31.17
2023-02-11T20:25:58.980Z,30.40
2023-02-11T20:28:01.872Z,28.13
2023-02-11T20:30:05.101Z,24.53
2023-02-11T20:32:08.562Z,27.23
2023-02-11T20:34:12.355Z,28.10
2023-02-11T20:36:18.317Z,30.00
2023-02-11T20:38:20.815Z,27.70
2023-02-11T20:40:23.634Z,27.73
2023-02-11T20:42:26.531Z,29.37
2023-02-11T20:44:29.440Z,30.10
2023-02-11T20:46:33.404Z,26.90
2023-02-11T20:48:35.840Z,31.17
2023-02-11T20:50:38.504Z,30.43
2023-02-11T20:52:41.335Z,29.30
2023-02-11T20:54:46.492Z,26.30
2023-02-11T20:56:51.259Z,34.20
2023-02-11T20:58:53.681Z,33.53
2023-02-11T21:00:56.503Z,27.23
2023-02-11T21:02:59.027Z,34.00
2023-02-11T21:05:01.997Z,31.48
2023-02-11T21:07:04.505Z,30.65
2023-02-11T21:09:08.877Z,34.77
2023-02-11T21:11:11.833Z,30.13
2023-02-11T21:13:14.649Z,33.37
2023-02-11T21:15:17.188Z,29.40
2023-02-11T21:17:20.112Z,37.77
2023-02-11T21:19:22.692Z,34.37
2023-02-11T21:21:25.568Z,34.57
2023-02-11T21:23:29.156Z,35.20
2023-02-11T21:25:31.972Z,29.33
2023-02-11T21:27:35.568Z,32.07
2023-02-11T21:29:52.782Z,31.13
2023-02-11T21:31:56.887Z,29.90
2023-02-11T21:34:02.036Z,34.77
2023-02-11T21:36:07.853Z,34.33
2023-02-11T21:38:12.986Z,28.60
2023-02-11T21:40:15.978Z,33.67
2023-02-11T21:42:18.472Z,32.33
2023-02-11T21:44:21.045Z,36.30
2023-02-11T21:46:24.067Z,33.60
2023-02-11T21:48:26.976Z,28.73
2023-02-11T21:50:29.734Z,31.47
2023-02-11T21:52:32.227Z,31.10
2023-02-11T21:54:34.992Z,31.80
2023-02-11T21:56:37.556Z,32.77
2023-02-11T21:58:40.339Z,31.77
2023-02-11T22:00:42.871Z,29.70
2023-02-11T22:02:47.246Z,30.67
2023-02-11T22:04:51.028Z,30.50
2023-02-11T22:06:53.924Z,30.08
2023-02-11T22:08:56.470Z,33.60
2023-02-11T22:11:06.689Z,27.73
2023-02-11T22:13:09.169Z,27.33
2023-02-11T22:15:11.729Z,31.27
2023-02-11T22:17:14.305Z,29.03
2023-02-11T22:19:17.418Z,32.00
2023-02-11T22:21:21.719Z,28.80
2023-02-11T22:23:24.203Z,23.43
2023-02-11T22:25:26.697Z,23.63
2023-02-11T22:27:29.503Z,24.73
2023-02-11T22:29:32.033Z,23.10
2023-02-11T22:31:35.357Z,22.83
2023-02-11T22:33:37.928Z,22.53
2023-02-11T22:35:40.681Z,24.70
2023-02-11T22:37:42.874Z,23.23
2023-02-11T22:39:45.788Z,23.97
2023-02-11T22:41:48.575Z,24.17
2023-02-11T22:43:51.520Z,21.40
2023-02-11T22:45:56.634Z,21.20
2023-02-11T22:47:59.641Z,20.58
2023-02-11T22:50:02.103Z,21.43
2023-02-11T22:52:04.923Z,22.40
2023-02-11T22:54:10.276Z,21.37
2023-02-11T22:56:15.583Z,20.38
2023-02-11T22:58:18.912Z,26.55
2023-02-11T23:00:24.096Z,23.63
2023-02-11T23:02:26.559Z,18.17
2023-02-11T23:04:29.377Z,21.37
2023-02-11T23:06:32.536Z,23.42
2023-02-11T23:08:35.525Z,19.33
2023-02-11T23:10:39.747Z,18.87
2023-02-11T23:12:42.708Z,21.77
2023-02-11T23:14:45.687Z,21.17
2023-02-11T23:16:51.224Z,21.03
2023-02-11T23:18:54.340Z,21.90
2023-02-11T23:20:57.206Z,22.88
2023-02-11T23:22:59.817Z,10.83
2023-02-11T23:25:02.631Z,4.70
2023-02-11T23:27:05.278Z,7.77
2023-02-11T23:29:08.172Z,6.37
2023-02-11T23:31:14.698Z,4.97
2023-02-11T23:33:17.291Z,3.33
2023-02-11T23:35:24.445Z,3.97
2023-02-11T23:37:27.067Z,3.63
2023-02-11T23:39:30.618Z,2.37
2023-02-11T23:41:33.955Z,1.93
2023-02-11T23:43:36.615Z,3.03
2023-02-11T23:45:39.388Z,2.40
2023-02-11T23:47:43.264Z,2.73
2023-02-11T23:49:46.972Z,4.13
2023-02-11T23:51:51.274Z,5.40
2023-02-11T23:53:56.757Z,1.43
2023-02-11T23:55:59.976Z,5.03
2023-02-11T23:58:02.465Z,2.10
